sensor_id;sensor_type;location;lat;lon;timestamp;P1;durP1;ratioP1;P2;durP2;ratioP2
54561;SDS011;40456;53.358;-1.486;2023-01-01T00:01:45;0.40;;;0.40;;
54561;SDS011;40456;53.358;-1.486;2023-01-01T00:04:12;0.80;;;0.50;;
54561;SDS011;40456;53.358;-1.486;2023-01-01T00:06:38;4.25;;;0.88;;
54561;SDS011;40456;53.358;-1.486;2023-01-01T00:09:04;0.70;;;0.55;;
54561;SDS011;40456;53.358;-1.486;2023-01-01T00:11:48;2.05;;;1.08;;
54561;SDS011;40456;53.358;-1.486;2023-01-01T00:14:14;1.95;;;1.63;;
54561;SDS011;40456;53.358;-1.486;2023-01-01T00:16:39;2.85;;;2.03;;
54561;SDS011;40456;53.358;-1.486;2023-01-01T00:19:05;2.13;;;1.77;;
54561;SDS011;40456;53.358;-1.486;2023-01-01T00:21:30;3.80;;;2.33;;
54561;SDS011;40456;53.358;-1.486;2023-01-01T00:23:56;2.67;;;2.10;;
54561;SDS011;40456;53.358;-1.486;2023-01-01T00:26:21;3.08;;;2.10;;
54561;SDS011;40456;53.358;-1.486;2023-01-01T00:28:46;3.67;;;2.05;;
54561;SDS011;40456;53.358;-1.486;2023-01-01T00:31:13;2.95;;;2.17;;
54561;SDS011;40456;53.358;-1.486;2023-01-01T00:33:41;2.53;;;1.92;;
54561;SDS011;40456;53.358;-1.486;2023-01-01T00:36:08;2.35;;;1.98;;
54561;SDS011;40456;53.358;-1.486;2023-01-01T00:38:34;2.60;;;1.90;;
54561;SDS011;40456;53.358;-1.486;2023-01-01T00:40:59;2.50;;;1.95;;
54561;SDS011;40456;53.358;-1.486;2023-01-01T00:43:25;2.03;;;1.63;;
54561;SDS011;40456;53.358;-1.486;2023-01-01T00:45:50;2.65;;;2.03;;
54561;SDS011;40456;53.358;-1.486;2023-01-01T00:48:18;2.42;;;1.52;;
54561;SDS011;40456;53.358;-1.486;2023-01-01T00:50:45;2.20;;;1.60;;
54561;SDS011;40456;53.358;-1.486;2023-01-01T00:53:14;2.22;;;1.38;;
54561;SDS011;40456;53.358;-1.486;2023-01-01T00:55:39;1.38;;;1.23;;
54561;SDS011;40456;53.358;-1.486;2023-01-01T00:58:05;1.13;;;1.00;;
54561;SDS011;40456;53.358;-1.486;2023-01-01T01:00:31;1.63;;;1.15;;
54561;SDS011;40456;53.358;-1.486;2023-01-01T01:02:57;2.63;;;1.30;;
54561;SDS011;40456;53.358;-1.486;2023-01-01T01:05:22;1.27;;;1.10;;
54561;SDS011;40456;53.358;-1.486;2023-01-01T01:07:48;1.33;;;1.08;;
54561;SDS011;40456;53.358;-1.486;2023-01-01T01:10:14;1.15;;;1.05;;
54561;SDS011;40456;53.358;-1.486;2023-01-01T01:12:39;1.27;;;0.85;;
54561;SDS011;40456;53.358;-1.486;2023-01-01T01:15:05;1.17;;;0.73;;
54561;SDS011;40456;53.358;-1.486;2023-01-01T01:17:32;0.80;;;0.80;;
54561;SDS011;40456;53.358;-1.486;2023-01-01T01:19:58;1.48;;;1.10;;
54561;SDS011;40456;53.358;-1.486;2023-01-01T01:22:24;0.77;;;0.60;;
54561;SDS011;40456;53.358;-1.486;2023-01-01T01:24:50;1.00;;;0.70;;
54561;SDS011;40456;53.358;-1.486;2023-01-01T01:27:16;1.40;;;1.00;;
54561;SDS011;40456;53.358;-1.486;2023-01-01T01:29:42;1.73;;;0.70;;
54561;SDS011;40456;53.358;-1.486;2023-01-01T01:32:08;1.05;;;0.60;;
54561;SDS011;40456;53.358;-1.486;2023-01-01T01:34:35;0.88;;;0.40;;
54561;SDS011;40456;53.358;-1.486;2023-01-01T01:37:03;2.53;;;0.50;;
54561;SDS011;40456;53.358;-1.486;2023-01-01T01:39:32;0.73;;;0.60;;
54561;SDS011;40456;53.358;-1.486;2023-01-01T01:41:57;1.52;;;0.50;;
54561;SDS011;40456;53.358;-1.486;2023-01-01T01:47:13;2.00;;;0.57;;
54561;SDS011;40456;53.358;-1.486;2023-01-01T01:52:48;0.85;;;0.40;;
54561;SDS011;40456;53.358;-1.486;2023-01-01T01:55:33;0.52;;;0.35;;
54561;SDS011;40456;53.358;-1.486;2023-01-01T01:58:01;1.10;;;0.50;;
54561;SDS011;40456;53.358;-1.486;2023-01-01T02:00:27;0.50;;;0.40;;
54561;SDS011;40456;53.358;-1.486;2023-01-01T02:02:57;0.60;;;0.40;;
54561;SDS011;40456;53.358;-1.486;2023-01-01T02:05:25;0.40;;;0.28;;
54561;SDS011;40456;53.358;-1.486;2023-01-01T02:07:51;1.13;;;0.50;;
54561;SDS011;40456;53.358;-1.486;2023-01-01T02:10:18;0.70;;;0.30;;
54561;SDS011;40456;53.358;-1.486;2023-01-01T02:12:43;2.38;;;0.50;;
54561;SDS011;40456;53.358;-1.486;2023-01-01T02:15:09;0.63;;;0.40;;
54561;SDS011;40456;53.358;-1.486;2023-01-01T02:17:58;0.80;;;0.40;;
54561;SDS011;40456;53.358;-1.486;2023-01-01T02:20:28;2.15;;;0.30;;
54561;SDS011;40456;53.358;-1.486;2023-01-01T02:23:14;0.52;;;0.20;;
54561;SDS011;40456;53.358;-1.486;2023-01-01T02:31:25;0.63;;;0.40;;
54561;SDS011;40456;53.358;-1.486;2023-01-01T02:33:55;1.88;;;0.55;;
54561;SDS011;40456;53.358;-1.486;2023-01-01T02:36:29;0.45;;;0.20;;
54561;SDS011;40456;53.358;-1.486;2023-01-01T02:38:56;1.92;;;0.50;;
54561;SDS011;40456;53.358;-1.486;2023-01-01T02:41:28;0.90;;;0.30;;
54561;SDS011;40456;53.358;-1.486;2023-01-01T02:44:02;1.13;;;0.40;;
54561;SDS011;40456;53.358;-1.486;2023-01-01T02:46:31;0.65;;;0.52;;
54561;SDS011;40456;53.358;-1.486;2023-01-01T02:48:58;0.30;;;0.15;;
54561;SDS011;40456;53.358;-1.486;2023-01-01T02:51:30;3.33;;;0.52;;
54561;SDS011;40456;53.358;-1.486;2023-01-01T02:54:11;0.55;;;0.20;;
54561;SDS011;40456;53.358;-1.486;2023-01-01T02:56:49;0.50;;;0.30;;
54561;SDS011;40456;53.358;-1.486;2023-01-01T03:05:07;0.45;;;0.25;;
54561;SDS011;40456;53.358;-1.486;2023-01-01T03:10:40;0.63;;;0.20;;
54561;SDS011;40456;53.358;-1.486;2023-01-01T03:13:17;5.38;;;0.30;;
54561;SDS011;40456;53.358;-1.486;2023-01-01T03:23:35;1.50;;;0.28;;
54561;SDS011;40456;53.358;-1.486;2023-01-01T03:26:04;0.52;;;0.15;;
54561;SDS011;40456;53.358;-1.486;2023-01-01T03:28:34;2.15;;;0.20;;
54561;SDS011;40456;53.358;-1.486;2023-01-01T03:31:03;1.15;;;0.28;;
54561;SDS011;40456;53.358;-1.486;2023-01-01T03:33:40;1.15;;;0.30;;
54561;SDS011;40456;53.358;-1.486;2023-01-01T03:36:09;0.20;;;0.10;;
54561;SDS011;40456;53.358;-1.486;2023-01-01T03:38:50;1.88;;;0.38;;
54561;SDS011;40456;53.358;-1.486;2023-01-01T03:44:34;2.25;;;0.38;;
54561;SDS011;40456;53.358;-1.486;2023-01-01T03:46:57;0.85;;;0.30;;
54561;SDS011;40456;53.358;-1.486;2023-01-01T03:49:23;2.42;;;0.40;;
54561;SDS011;40456;53.358;-1.486;2023-01-01T03:51:58;1.10;;;0.20;;
54561;SDS011;40456;53.358;-1.486;2023-01-01T04:00:07;0.93;;;0.40;;
54561;SDS011;40456;53.358;-1.486;2023-01-01T04:05:13;1.80;;;0.40;;
54561;SDS011;40456;53.358;-1.486;2023-01-01T04:07:40;2.47;;;0.30;;
54561;SDS011;40456;53.358;-1.486;2023-01-01T04:10:06;1.23;;;0.50;;
54561;SDS011;40456;53.358;-1.486;2023-01-01T04:12:42;1.17;;;0.50;;
54561;SDS011;40456;53.358;-1.486;2023-01-01T04:15:12;1.63;;;0.35;;
54561;SDS011;40456;53.358;-1.486;2023-01-01T04:17:38;0.60;;;0.10;;
54561;SDS011;40456;53.358;-1.486;2023-01-01T04:20:03;1.63;;;0.43;;
54561;SDS011;40456;53.358;-1.486;2023-01-01T04:22:29;1.40;;;0.20;;
54561;SDS011;40456;53.358;-1.486;2023-01-01T04:24:55;1.05;;;0.40;;
54561;SDS011;40456;53.358;-1.486;2023-01-01T04:27:20;0.70;;;0.20;;
54561;SDS011;40456;53.358;-1.486;2023-01-01T04:29:46;0.50;;;0.20;;
54561;SDS011;40456;53.358;-1.486;2023-01-01T04:32:11;1.70;;;0.28;;
54561;SDS011;40456;53.358;-1.486;2023-01-01T04:34:37;0.40;;;0.17;;
54561;SDS011;40456;53.358;-1.486;2023-01-01T04:37:03;0.45;;;0.20;;
54561;SDS011;40456;53.358;-1.486;2023-01-01T04:39:28;3.22;;;0.30;;
54561;SDS011;40456;53.358;-1.486;2023-01-01T04:41:54;1.25;;;0.20;;
54561;SDS011;40456;53.358;-1.486;2023-01-01T04:44:19;1.30;;;0.30;;
54561;SDS011;40456;53.358;-1.486;2023-01-01T04:46:45;0.85;;;0.35;;
54561;SDS011;40456;53.358;-1.486;2023-01-01T04:49:10;0.77;;;0.20;;
54561;SDS011;40456;53.358;-1.486;2023-01-01T04:51:36;1.65;;;0.20;;
54561;SDS011;40456;53.358;-1.486;2023-01-01T04:54:01;2.75;;;0.50;;
54561;SDS011;40456;53.358;-1.486;2023-01-01T04:56:27;0.38;;;0.10;;
54561;SDS011;40456;53.358;-1.486;2023-01-01T04:58:53;0.17;;;0.10;;
54561;SDS011;40456;53.358;-1.486;2023-01-01T05:01:22;0.63;;;0.20;;
54561;SDS011;40456;53.358;-1.486;2023-01-01T05:03:50;0.82;;;0.22;;
54561;SDS011;40456;53.358;-1.486;2023-01-01T05:06:16;2.90;;;0.43;;
54561;SDS011;40456;53.358;-1.486;2023-01-01T05:08:43;0.25;;;0.10;;
54561;SDS011;40456;53.358;-1.486;2023-01-01T05:11:11;1.48;;;0.32;;
54561;SDS011;40456;53.358;-1.486;2023-01-01T05:13:38;0.95;;;0.30;;
54561;SDS011;40456;53.358;-1.486;2023-01-01T05:16:06;1.17;;;0.20;;
54561;SDS011;40456;53.358;-1.486;2023-01-01T05:18:33;1.42;;;0.20;;
54561;SDS011;40456;53.358;-1.486;2023-01-01T05:21:00;0.68;;;0.32;;
54561;SDS011;40456;53.358;-1.486;2023-01-01T05:23:29;1.10;;;0.57;;
54561;SDS011;40456;53.358;-1.486;2023-01-01T05:25:55;1.30;;;0.30;;
54561;SDS011;40456;53.358;-1.486;2023-01-01T05:28:21;5.15;;;0.57;;
54561;SDS011;40456;53.358;-1.486;2023-01-01T05:30:48;1.55;;;0.20;;
54561;SDS011;40456;53.358;-1.486;2023-01-01T05:33:14;0.55;;;0.20;;
54561;SDS011;40456;53.358;-1.486;2023-01-01T05:35:40;1.10;;;0.45;;
54561;SDS011;40456;53.358;-1.486;2023-01-01T05:38:05;1.55;;;0.60;;
54561;SDS011;40456;53.358;-1.486;2023-01-01T05:40:31;2.95;;;0.38;;
54561;SDS011;40456;53.358;-1.486;2023-01-01T05:42:56;1.33;;;0.30;;
54561;SDS011;40456;53.358;-1.486;2023-01-01T05:45:22;2.08;;;0.32;;
54561;SDS011;40456;53.358;-1.486;2023-01-01T05:47:48;0.47;;;0.30;;
54561;SDS011;40456;53.358;-1.486;2023-01-01T05:50:13;0.73;;;0.30;;
54561;SDS011;40456;53.358;-1.486;2023-01-01T05:52:39;2.40;;;0.65;;
54561;SDS011;40456;53.358;-1.486;2023-01-01T05:55:05;1.60;;;0.35;;
54561;SDS011;40456;53.358;-1.486;2023-01-01T05:57:31;2.50;;;0.40;;
54561;SDS011;40456;53.358;-1.486;2023-01-01T05:59:56;1.20;;;0.38;;
54561;SDS011;40456;53.358;-1.486;2023-01-01T06:02:22;2.17;;;0.52;;
54561;SDS011;40456;53.358;-1.486;2023-01-01T06:04:47;1.67;;;0.70;;
54561;SDS011;40456;53.358;-1.486;2023-01-01T06:07:13;2.78;;;0.30;;
54561;SDS011;40456;53.358;-1.486;2023-01-01T06:09:38;1.70;;;0.38;;
54561;SDS011;40456;53.358;-1.486;2023-01-01T06:12:04;1.33;;;0.50;;
54561;SDS011;40456;53.358;-1.486;2023-01-01T06:14:30;1.92;;;0.32;;
54561;SDS011;40456;53.358;-1.486;2023-01-01T06:16:55;2.67;;;0.95;;
54561;SDS011;40456;53.358;-1.486;2023-01-01T06:19:21;6.43;;;0.57;;
54561;SDS011;40456;53.358;-1.486;2023-01-01T06:21:47;2.85;;;0.43;;
54561;SDS011;40456;53.358;-1.486;2023-01-01T06:24:12;2.40;;;0.22;;
54561;SDS011;40456;53.358;-1.486;2023-01-01T06:26:38;1.60;;;0.30;;
54561;SDS011;40456;53.358;-1.486;2023-01-01T06:29:03;2.33;;;0.68;;
54561;SDS011;40456;53.358;-1.486;2023-01-01T06:31:29;1.88;;;0.68;;
54561;SDS011;40456;53.358;-1.486;2023-01-01T06:33:56;2.10;;;0.47;;
54561;SDS011;40456;53.358;-1.486;2023-01-01T06:36:22;3.83;;;0.73;;
54561;SDS011;40456;53.358;-1.486;2023-01-01T06:38:49;3.10;;;0.40;;
54561;SDS011;40456;53.358;-1.486;2023-01-01T06:41:17;1.42;;;0.50;;
54561;SDS011;40456;53.358;-1.486;2023-01-01T06:43:44;1.60;;;0.38;;
54561;SDS011;40456;53.358;-1.486;2023-01-01T06:46:16;1.13;;;0.40;;
54561;SDS011;40456;53.358;-1.486;2023-01-01T06:48:43;1.05;;;0.43;;
54561;SDS011;40456;53.358;-1.486;2023-01-01T06:51:11;5.13;;;0.80;;
54561;SDS011;40456;53.358;-1.486;2023-01-01T06:53:38;2.20;;;0.52;;
54561;SDS011;40456;53.358;-1.486;2023-01-01T06:56:04;3.90;;;0.32;;
54561;SDS011;40456;53.358;-1.486;2023-01-01T06:58:30;6.32;;;0.85;;
54561;SDS011;40456;53.358;-1.486;2023-01-01T07:01:07;3.20;;;0.30;;
54561;SDS011;40456;53.358;-1.486;2023-01-01T07:03:34;4.40;;;0.75;;
54561;SDS011;40456;53.358;-1.486;2023-01-01T07:06:01;6.10;;;0.45;;
54561;SDS011;40456;53.358;-1.486;2023-01-01T07:08:26;2.33;;;0.50;;
54561;SDS011;40456;53.358;-1.486;2023-01-01T07:10:52;4.63;;;0.85;;
54561;SDS011;40456;53.358;-1.486;2023-01-01T07:13:21;2.38;;;0.47;;
54561;SDS011;40456;53.358;-1.486;2023-01-01T07:15:46;0.50;;;0.30;;
54561;SDS011;40456;53.358;-1.486;2023-01-01T07:18:12;2.90;;;0.88;;
54561;SDS011;40456;53.358;-1.486;2023-01-01T07:20:37;2.30;;;0.65;;
54561;SDS011;40456;53.358;-1.486;2023-01-01T07:23:03;0.95;;;0.50;;
54561;SDS011;40456;53.358;-1.486;2023-01-01T07:25:28;2.78;;;0.50;;
54561;SDS011;40456;53.358;-1.486;2023-01-01T07:27:54;2.17;;;0.50;;
54561;SDS011;40456;53.358;-1.486;2023-01-01T07:30:19;2.95;;;0.40;;
54561;SDS011;40456;53.358;-1.486;2023-01-01T07:32:45;2.13;;;0.50;;
54561;SDS011;40456;53.358;-1.486;2023-01-01T07:35:10;6.20;;;0.70;;
54561;SDS011;40456;53.358;-1.486;2023-01-01T07:37:36;1.02;;;0.40;;
54561;SDS011;40456;53.358;-1.486;2023-01-01T07:40:01;1.30;;;0.40;;
54561;SDS011;40456;53.358;-1.486;2023-01-01T07:42:27;6.05;;;0.75;;
54561;SDS011;40456;53.358;-1.486;2023-01-01T07:44:53;3.45;;;1.05;;
54561;SDS011;40456;53.358;-1.486;2023-01-01T07:47:22;2.60;;;0.60;;
54561;SDS011;40456;53.358;-1.486;2023-01-01T07:49:49;0.90;;;0.45;;
54561;SDS011;40456;53.358;-1.486;2023-01-01T07:52:16;1.67;;;0.50;;
54561;SDS011;40456;53.358;-1.486;2023-01-01T07:54:41;0.95;;;0.57;;
54561;SDS011;40456;53.358;-1.486;2023-01-01T07:57:07;1.80;;;0.40;;
54561;SDS011;40456;53.358;-1.486;2023-01-01T07:59:33;2.58;;;0.50;;
54561;SDS011;40456;53.358;-1.486;2023-01-01T08:01:58;1.90;;;0.50;;
54561;SDS011;40456;53.358;-1.486;2023-01-01T08:04:24;3.13;;;0.40;;
54561;SDS011;40456;53.358;-1.486;2023-01-01T08:06:51;2.58;;;0.52;;
54561;SDS011;40456;53.358;-1.486;2023-01-01T08:09:17;3.45;;;0.88;;
54561;SDS011;40456;53.358;-1.486;2023-01-01T08:11:43;2.78;;;0.45;;
54561;SDS011;40456;53.358;-1.486;2023-01-01T08:14:10;0.95;;;0.40;;
54561;SDS011;40456;53.358;-1.486;2023-01-01T08:16:36;0.93;;;0.30;;
54561;SDS011;40456;53.358;-1.486;2023-01-01T08:19:02;2.17;;;0.20;;
54561;SDS011;40456;53.358;-1.486;2023-01-01T08:21:27;1.90;;;0.30;;
54561;SDS011;40456;53.358;-1.486;2023-01-01T08:23:53;2.45;;;0.57;;
54561;SDS011;40456;53.358;-1.486;2023-01-01T08:26:29;2.78;;;0.82;;
54561;SDS011;40456;53.358;-1.486;2023-01-01T08:28:56;3.33;;;0.50;;
54561;SDS011;40456;53.358;-1.486;2023-01-01T08:31:22;2.47;;;0.45;;
54561;SDS011;40456;53.358;-1.486;2023-01-01T08:33:48;3.28;;;0.88;;
54561;SDS011;40456;53.358;-1.486;2023-01-01T08:36:14;3.72;;;0.40;;
54561;SDS011;40456;53.358;-1.486;2023-01-01T08:38:41;1.77;;;0.30;;
54561;SDS011;40456;53.358;-1.486;2023-01-01T08:41:07;2.78;;;1.02;;
54561;SDS011;40456;53.358;-1.486;2023-01-01T08:43:33;2.13;;;0.70;;
54561;SDS011;40456;53.358;-1.486;2023-01-01T08:46:01;2.75;;;0.60;;
54561;SDS011;40456;53.358;-1.486;2023-01-01T08:48:27;3.25;;;0.57;;
54561;SDS011;40456;53.358;-1.486;2023-01-01T08:50:52;1.67;;;0.45;;
54561;SDS011;40456;53.358;-1.486;2023-01-01T08:53:24;2.20;;;0.50;;
54561;SDS011;40456;53.358;-1.486;2023-01-01T08:55:57;3.88;;;0.63;;
54561;SDS011;40456;53.358;-1.486;2023-01-01T08:58:24;3.47;;;0.32;;
54561;SDS011;40456;53.358;-1.486;2023-01-01T09:00:50;3.80;;;0.40;;
54561;SDS011;40456;53.358;-1.486;2023-01-01T09:03:15;1.73;;;0.45;;
54561;SDS011;40456;53.358;-1.486;2023-01-01T09:05:41;0.70;;;0.25;;
54561;SDS011;40456;53.358;-1.486;2023-01-01T09:08:10;3.25;;;0.68;;
54561;SDS011;40456;53.358;-1.486;2023-01-01T09:10:36;1.50;;;0.40;;
54561;SDS011;40456;53.358;-1.486;2023-01-01T09:13:02;1.83;;;0.43;;
54561;SDS011;40456;53.358;-1.486;2023-01-01T09:15:27;1.27;;;0.40;;
54561;SDS011;40456;53.358;-1.486;2023-01-01T09:17:52;1.08;;;0.40;;
54561;SDS011;40456;53.358;-1.486;2023-01-01T09:20:18;1.60;;;0.50;;
54561;SDS011;40456;53.358;-1.486;2023-01-01T09:22:43;1.65;;;0.65;;
54561;SDS011;40456;53.358;-1.486;2023-01-01T09:25:08;0.82;;;0.30;;
54561;SDS011;40456;53.358;-1.486;2023-01-01T09:27:34;1.73;;;0.45;;
54561;SDS011;40456;53.358;-1.486;2023-01-01T09:30:06;2.65;;;0.60;;
54561;SDS011;40456;53.358;-1.486;2023-01-01T09:32:32;1.08;;;0.32;;
54561;SDS011;40456;53.358;-1.486;2023-01-01T09:34:57;0.98;;;0.60;;
54561;SDS011;40456;53.358;-1.486;2023-01-01T09:37:24;2.80;;;0.85;;
54561;SDS011;40456;53.358;-1.486;2023-01-01T09:39:50;3.03;;;0.52;;
54561;SDS011;40456;53.358;-1.486;2023-01-01T09:42:35;3.40;;;1.02;;
54561;SDS011;40456;53.358;-1.486;2023-01-01T09:46:06;3.45;;;0.40;;
54561;SDS011;40456;53.358;-1.486;2023-01-01T09:48:06;2.30;;;0.60;;
54561;SDS011;40456;53.358;-1.486;2023-01-01T09:50:41;1.35;;;0.35;;
54561;SDS011;40456;53.358;-1.486;2023-01-01T09:55:58;2.10;;;0.50;;
54561;SDS011;40456;53.358;-1.486;2023-01-01T09:58:32;0.82;;;0.40;;
54561;SDS011;40456;53.358;-1.486;2023-01-01T10:01:05;1.30;;;0.30;;
54561;SDS011;40456;53.358;-1.486;2023-01-01T10:06:30;2.10;;;0.65;;
54561;SDS011;40456;53.358;-1.486;2023-01-01T10:11:44;3.72;;;0.50;;
54561;SDS011;40456;53.358;-1.486;2023-01-01T10:14:35;1.95;;;0.60;;
54561;SDS011;40456;53.358;-1.486;2023-01-01T10:17:05;3.83;;;0.70;;
54561;SDS011;40456;53.358;-1.486;2023-01-01T10:19:43;3.22;;;0.52;;
54561;SDS011;40456;53.358;-1.486;2023-01-01T10:22:19;3.05;;;0.55;;
54561;SDS011;40456;53.358;-1.486;2023-01-01T10:24:49;1.73;;;0.50;;
54561;SDS011;40456;53.358;-1.486;2023-01-01T10:27:31;3.53;;;0.55;;
54561;SDS011;40456;53.358;-1.486;2023-01-01T10:29:59;1.52;;;0.43;;
54561;SDS011;40456;53.358;-1.486;2023-01-01T10:32:28;7.05;;;1.23;;
54561;SDS011;40456;53.358;-1.486;2023-01-01T10:34:55;1.90;;;0.63;;
54561;SDS011;40456;53.358;-1.486;2023-01-01T10:37:21;8.00;;;1.13;;
54561;SDS011;40456;53.358;-1.486;2023-01-01T10:39:46;2.03;;;0.93;;
54561;SDS011;40456;53.358;-1.486;2023-01-01T10:42:12;4.60;;;1.08;;
54561;SDS011;40456;53.358;-1.486;2023-01-01T10:44:38;2.60;;;1.08;;
54561;SDS011;40456;53.358;-1.486;2023-01-01T10:47:26;6.05;;;1.15;;
54561;SDS011;40456;53.358;-1.486;2023-01-01T10:49:54;2.75;;;0.77;;
54561;SDS011;40456;53.358;-1.486;2023-01-01T10:52:22;3.30;;;0.70;;
54561;SDS011;40456;53.358;-1.486;2023-01-01T10:54:56;2.30;;;0.57;;
54561;SDS011;40456;53.358;-1.486;2023-01-01T10:59:51;1.75;;;0.50;;
54561;SDS011;40456;53.358;-1.486;2023-01-01T11:02:21;1.30;;;0.52;;
54561;SDS011;40456;53.358;-1.486;2023-01-01T11:04:47;1.42;;;0.40;;
54561;SDS011;40456;53.358;-1.486;2023-01-01T11:09:56;1.15;;;0.40;;
54561;SDS011;40456;53.358;-1.486;2023-01-01T11:12:24;2.67;;;0.70;;
54561;SDS011;40456;53.358;-1.486;2023-01-01T11:14:53;1.75;;;0.70;;
54561;SDS011;40456;53.358;-1.486;2023-01-01T11:17:21;2.20;;;0.50;;
54561;SDS011;40456;53.358;-1.486;2023-01-01T11:19:52;2.17;;;0.60;;
54561;SDS011;40456;53.358;-1.486;2023-01-01T11:25:03;3.95;;;0.68;;
54561;SDS011;40456;53.358;-1.486;2023-01-01T11:27:35;1.37;;;0.40;;
54561;SDS011;40456;53.358;-1.486;2023-01-01T11:32:59;1.60;;;0.43;;
54561;SDS011;40456;53.358;-1.486;2023-01-01T11:35:27;2.08;;;0.60;;
54561;SDS011;40456;53.358;-1.486;2023-01-01T11:37:54;2.55;;;0.60;;
54561;SDS011;40456;53.358;-1.486;2023-01-01T11:40:28;2.03;;;0.70;;
54561;SDS011;40456;53.358;-1.486;2023-01-01T11:42:59;2.97;;;0.60;;
54561;SDS011;40456;53.358;-1.486;2023-01-01T11:45:26;3.08;;;1.00;;
54561;SDS011;40456;53.358;-1.486;2023-01-01T11:47:55;4.20;;;0.75;;
54561;SDS011;40456;53.358;-1.486;2023-01-01T11:50:24;4.47;;;0.80;;
54561;SDS011;40456;53.358;-1.486;2023-01-01T11:52:53;3.75;;;0.47;;
54561;SDS011;40456;53.358;-1.486;2023-01-01T11:57:58;4.63;;;1.13;;
54561;SDS011;40456;53.358;-1.486;2023-01-01T12:00:28;4.50;;;1.05;;
54561;SDS011;40456;53.358;-1.486;2023-01-01T12:03:00;7.95;;;1.17;;
54561;SDS011;40456;53.358;-1.486;2023-01-01T12:05:45;3.22;;;1.10;;
54561;SDS011;40456;53.358;-1.486;2023-01-01T12:08:18;7.60;;;1.73;;
54561;SDS011;40456;53.358;-1.486;2023-01-01T12:10:52;5.70;;;2.00;;
54561;SDS011;40456;53.358;-1.486;2023-01-01T12:13:22;6.88;;;1.85;;
54561;SDS011;40456;53.358;-1.486;2023-01-01T12:16:01;4.97;;;1.88;;
54561;SDS011;40456;53.358;-1.486;2023-01-01T12:21:14;8.88;;;1.83;;
54561;SDS011;40456;53.358;-1.486;2023-01-01T12:23:49;4.57;;;1.80;;
54561;SDS011;40456;53.358;-1.486;2023-01-01T12:31:57;3.83;;;1.00;;
54561;SDS011;40456;53.358;-1.486;2023-01-01T12:42:52;4.78;;;1.10;;
54561;SDS011;40456;53.358;-1.486;2023-01-01T12:45:57;4.18;;;1.00;;
54561;SDS011;40456;53.358;-1.486;2023-01-01T12:50:55;1.23;;;0.82;;
54561;SDS011;40456;53.358;-1.486;2023-01-01T12:56:23;2.97;;;0.68;;
54561;SDS011;40456;53.358;-1.486;2023-01-01T12:59:06;2.22;;;0.50;;
54561;SDS011;40456;53.358;-1.486;2023-01-01T13:01:35;2.08;;;0.80;;
54561;SDS011;40456;53.358;-1.486;2023-01-01T13:04:06;1.63;;;0.75;;
54561;SDS011;40456;53.358;-1.486;2023-01-01T13:06:38;2.53;;;0.57;;
54561;SDS011;40456;53.358;-1.486;2023-01-01T13:09:06;1.67;;;0.57;;
54561;SDS011;40456;53.358;-1.486;2023-01-01T13:11:38;2.60;;;0.57;;
54561;SDS011;40456;53.358;-1.486;2023-01-01T13:14:05;2.15;;;0.70;;
54561;SDS011;40456;53.358;-1.486;2023-01-01T13:16:33;2.33;;;0.52;;
54561;SDS011;40456;53.358;-1.486;2023-01-01T13:19:00;1.25;;;0.52;;
54561;SDS011;40456;53.358;-1.486;2023-01-01T13:21:26;1.95;;;0.73;;
54561;SDS011;40456;53.358;-1.486;2023-01-01T13:23:53;2.45;;;0.65;;
54561;SDS011;40456;53.358;-1.486;2023-01-01T13:32:06;1.63;;;0.50;;
54561;SDS011;40456;53.358;-1.486;2023-01-01T13:45:09;1.38;;;0.50;;
54561;SDS011;40456;53.358;-1.486;2023-01-01T13:50:12;1.88;;;0.32;;
54561;SDS011;40456;53.358;-1.486;2023-01-01T13:53:01;1.65;;;0.70;;
54561;SDS011;40456;53.358;-1.486;2023-01-01T13:55:48;1.95;;;0.68;;
54561;SDS011;40456;53.358;-1.486;2023-01-01T14:03:33;1.25;;;0.70;;
54561;SDS011;40456;53.358;-1.486;2023-01-01T14:06:03;2.03;;;0.85;;
54561;SDS011;40456;53.358;-1.486;2023-01-01T14:08:36;5.32;;;0.93;;
54561;SDS011;40456;53.358;-1.486;2023-01-01T14:11:02;1.65;;;0.90;;
54561;SDS011;40456;53.358;-1.486;2023-01-01T14:13:42;7.07;;;1.40;;
54561;SDS011;40456;53.358;-1.486;2023-01-01T14:16:08;4.63;;;0.70;;
54561;SDS011;40456;53.358;-1.486;2023-01-01T14:18:39;0.63;;;0.60;;
54561;SDS011;40456;53.358;-1.486;2023-01-01T14:21:10;2.75;;;0.70;;
54561;SDS011;40456;53.358;-1.486;2023-01-01T14:23:39;2.50;;;0.68;;
54561;SDS011;40456;53.358;-1.486;2023-01-01T14:26:11;2.60;;;0.90;;
54561;SDS011;40456;53.358;-1.486;2023-01-01T14:28:37;4.10;;;0.73;;
54561;SDS011;40456;53.358;-1.486;2023-01-01T14:31:05;2.20;;;0.95;;
54561;SDS011;40456;53.358;-1.486;2023-01-01T14:33:35;4.43;;;1.25;;
54561;SDS011;40456;53.358;-1.486;2023-01-01T14:36:05;3.85;;;1.25;;
54561;SDS011;40456;53.358;-1.486;2023-01-01T14:38:44;4.00;;;1.35;;
54561;SDS011;40456;53.358;-1.486;2023-01-01T14:41:18;3.85;;;1.40;;
54561;SDS011;40456;53.358;-1.486;2023-01-01T14:44:03;6.15;;;1.80;;
54561;SDS011;40456;53.358;-1.486;2023-01-01T14:46:30;4.53;;;1.38;;
54561;SDS011;40456;53.358;-1.486;2023-01-01T14:48:57;4.97;;;2.05;;
54561;SDS011;40456;53.358;-1.486;2023-01-01T14:51:29;4.15;;;1.63;;
54561;SDS011;40456;53.358;-1.486;2023-01-01T14:53:57;5.00;;;2.08;;
54561;SDS011;40456;53.358;-1.486;2023-01-01T14:56:30;4.35;;;1.70;;
54561;SDS011;40456;53.358;-1.486;2023-01-01T14:59:09;4.82;;;1.92;;
54561;SDS011;40456;53.358;-1.486;2023-01-01T15:01:46;3.90;;;1.80;;
54561;SDS011;40456;53.358;-1.486;2023-01-01T15:04:23;3.75;;;1.15;;
54561;SDS011;40456;53.358;-1.486;2023-01-01T15:06:52;4.38;;;1.40;;
54561;SDS011;40456;53.358;-1.486;2023-01-01T15:09:21;5.00;;;1.52;;
54561;SDS011;40456;53.358;-1.486;2023-01-01T15:11:49;4.60;;;1.50;;
54561;SDS011;40456;53.358;-1.486;2023-01-01T15:14:29;5.50;;;1.85;;
54561;SDS011;40456;53.358;-1.486;2023-01-01T15:17:08;2.35;;;1.13;;
54561;SDS011;40456;53.358;-1.486;2023-01-01T15:19:35;4.07;;;1.25;;
54561;SDS011;40456;53.358;-1.486;2023-01-01T15:22:13;3.80;;;1.30;;
54561;SDS011;40456;53.358;-1.486;2023-01-01T15:24:43;5.43;;;1.70;;
54561;SDS011;40456;53.358;-1.486;2023-01-01T15:27:18;4.35;;;1.40;;
54561;SDS011;40456;53.358;-1.486;2023-01-01T15:29:46;6.20;;;1.67;;
54561;SDS011;40456;53.358;-1.486;2023-01-01T15:32:12;4.00;;;1.33;;
54561;SDS011;40456;53.358;-1.486;2023-01-01T15:34:46;4.50;;;1.00;;
54561;SDS011;40456;53.358;-1.486;2023-01-01T15:45:35;4.35;;;1.13;;
54561;SDS011;40456;53.358;-1.486;2023-01-01T15:50:31;4.60;;;1.50;;
54561;SDS011;40456;53.358;-1.486;2023-01-01T15:55:47;3.53;;;0.95;;
54561;SDS011;40456;53.358;-1.486;2023-01-01T15:58:35;2.97;;;1.15;;
54561;SDS011;40456;53.358;-1.486;2023-01-01T16:01:02;4.72;;;1.08;;
54561;SDS011;40456;53.358;-1.486;2023-01-01T16:03:29;4.43;;;1.17;;
54561;SDS011;40456;53.358;-1.486;2023-01-01T16:05:56;3.00;;;0.98;;
54561;SDS011;40456;53.358;-1.486;2023-01-01T16:08:22;2.78;;;0.88;;
54561;SDS011;40456;53.358;-1.486;2023-01-01T16:10:47;2.85;;;1.10;;
54561;SDS011;40456;53.358;-1.486;2023-01-01T16:13:13;5.50;;;1.15;;
54561;SDS011;40456;53.358;-1.486;2023-01-01T16:15:49;5.68;;;1.58;;
54561;SDS011;40456;53.358;-1.486;2023-01-01T16:18:18;2.58;;;0.98;;
54561;SDS011;40456;53.358;-1.486;2023-01-01T16:20:44;5.45;;;1.30;;
54561;SDS011;40456;53.358;-1.486;2023-01-01T16:23:13;5.03;;;1.27;;
54561;SDS011;40456;53.358;-1.486;2023-01-01T16:25:40;4.63;;;1.27;;
54561;SDS011;40456;53.358;-1.486;2023-01-01T16:28:05;2.63;;;1.10;;
54561;SDS011;40456;53.358;-1.486;2023-01-01T16:30:31;3.10;;;1.50;;
54561;SDS011;40456;53.358;-1.486;2023-01-01T16:32:57;5.45;;;1.40;;
54561;SDS011;40456;53.358;-1.486;2023-01-01T16:35:22;3.05;;;1.30;;
54561;SDS011;40456;53.358;-1.486;2023-01-01T16:37:48;2.38;;;1.25;;
54561;SDS011;40456;53.358;-1.486;2023-01-01T16:40:14;3.45;;;1.08;;
54561;SDS011;40456;53.358;-1.486;2023-01-01T16:42:39;4.80;;;1.63;;
54561;SDS011;40456;53.358;-1.486;2023-01-01T16:45:05;4.28;;;1.25;;